Main page
METAR-TAF:

METAR-TAF

Airports :

Jeddah, Saudi Arabia

King Abdulaziz International Airport

latitude: 21-42N, longitude: 039-11E, elevation: 15 m

Current weather observation

The report was made 17 minutes ago, at 16:00 UTC
Wind 8 kt from the West/Northwest
Temperature 31°C
Humidity 38%
Pressure 1005 hPa
Visibility 10 km or more
no clouds below 1500 m and no cumulonimbus

METAR: OEJN 251600Z 30008KT CAVOK 31/15 Q1005 NOSIG

Time: 19:17 (16:17 UTC)

Forecast

The report was made 5 hours and 17 minutes ago, at 11:00 UTC
Forecast valid from 25 at 12 UTC to 26 at 18 UTC
Wind 15 kt from the North/Northwest
Visibility 10 km or more
no clouds below 1500 m and no cumulonimbus
Becoming
from 25 at 20 UTC to 25 at 22 UTC
Wind 6 kt from the North/Northeast

TAF: OEJN 251100Z 2512/2618 33015KT CAVOK BECMG 2520/2522 02006KT

Weather observations and forecasts of more than 4000 airports (METAR and TAF reports).

The available stations are represented by yellow and red dots on the map.

Hover mouse over dot to see the name of the station.

Then click to see weather observations and forecasts.

To change the map : click on the green buttons with a black cross to zoom in, on the green button with a dash to zoom out, or on the green arrows for adjacent maps.


METAR-TAF: